Time;durP1;ratioP1;P1;durP2;ratioP2;P2;SDS_P1;SDS_P2;PMS_P1;PMS_P2;Temp;Humidity;BMP_temperature;BMP_pressure;BME280_temperature;BME280_humidity;BME280_pressure;Samples;Min_cycle;Max_cycle;Signal;HPM_P1;HPM_P2
2022/04/17 00:00:10;;;;;;;12.35;9.10;;;;;;;15.05;72.04;101171.31;5090204;28;20103;-84
2022/04/17 00:02:36;;;;;;;11.98;9.20;;;;;;;14.99;72.44;101166.69;5073762;28;20039;-83
2022/04/17 00:05:03;;;;;;;10.60;8.60;;;;;;;14.87;71.52;101129.34;5091725;28;20034;-84
2022/04/17 00:07:29;;;;;;;12.32;8.80;;;;;;;14.99;71.31;101148.28;5090449;28;20105;-83
2022/04/17 00:09:55;;;;;;;12.32;9.60;;;;;;;15.06;70.99;101171.38;5091182;28;20458;-83
2022/04/17 00:12:23;;;;;;;11.13;9.45;;;;;;;15.02;70.91;101168.53;5090192;28;20046;-83
2022/04/17 00:14:50;;;;;;;13.10;9.55;;;;;;;15.04;71.35;101185.28;5091749;28;20063;-83
2022/04/17 00:17:16;;;;;;;12.25;9.48;;;;;;;14.95;71.09;101172.66;5090162;28;20031;-83
2022/04/17 00:19:41;;;;;;;12.23;9.65;;;;;;;15.02;70.82;101182.59;5090007;28;20039;-84
2022/04/17 00:22:07;;;;;;;14.32;10.50;;;;;;;14.72;70.99;101132.22;5091118;28;20048;-84
2022/04/17 00:24:33;;;;;;;13.27;10.25;;;;;;;14.76;70.93;101131.53;5090115;28;20494;-83
2022/04/17 00:27:00;;;;;;;12.85;9.57;;;;;;;15.00;70.88;101179.00;5091382;28;20024;-84
2022/04/17 00:29:28;;;;;;;14.13;10.40;;;;;;;14.71;71.20;101146.22;5091050;28;20027;-84
2022/04/17 00:31:56;;;;;;;12.30;9.77;;;;;;;14.69;71.08;101141.69;5090272;28;20111;-83
2022/04/17 00:34:23;;;;;;;13.90;10.30;;;;;;;14.63;70.49;101131.84;5090225;28;20469;-84
2022/04/17 00:36:48;;;;;;;15.25;10.77;;;;;;;14.90;70.86;101187.34;5091410;28;20027;-84
2022/04/17 00:39:14;;;;;;;13.10;10.50;;;;;;;15.09;70.80;101214.41;5090761;28;20036;-83
2022/04/17 00:41:40;;;;;;;13.77;10.18;;;;;;;15.07;70.63;101212.63;5074978;28;20482;-83
2022/04/17 00:44:13;;;;;;;15.13;10.25;;;;;;;14.78;70.88;101165.78;5071126;28;20029;-83
2022/04/17 00:46:39;;;;;;;14.20;10.10;;;;;;;15.01;70.80;101198.31;5069852;28;20543;-84
2022/04/17 00:49:06;;;;;;;15.23;10.85;;;;;;;14.95;71.21;101205.94;5069793;28;20489;-83
2022/04/17 00:51:31;;;;;;;;;;;;;;;15.09;70.59;101217.03;5089910;28;20032;-83
2022/04/17 00:53:57;;;;;;;16.08;10.95;;;;;;;14.96;70.62;101184.94;5091104;28;20427;-83
2022/04/17 00:56:23;;;;;;;;;;;;;;;15.08;70.62;101200.38;5091762;28;20036;-83
2022/04/17 00:58:49;;;;;;;13.13;10.30;;;;;;;15.01;70.72;101183.44;5089963;28;20305;-83
2022/04/17 01:01:15;;;;;;;15.80;11.05;;;;;;;14.94;70.90;101168.22;5089252;28;20393;-83
2022/04/17 01:03:41;;;;;;;14.93;10.48;;;;;;;14.97;70.88;101155.19;5090802;28;20047;-83
2022/04/17 01:06:08;;;;;;;13.65;10.82;;;;;;;15.04;70.99;101151.09;5089489;28;20028;-83
2022/04/17 01:08:40;;;;;;;;;;;;;;;15.08;71.08;101150.41;5090329;28;20028;-83
2022/04/17 01:11:09;;;;;;;14.40;10.77;;;;;;;14.94;70.81;101136.66;5090034;28;20377;-83
2022/04/17 01:13:38;;;;;;;13.85;10.77;;;;;;;14.88;71.46;101132.88;5089953;28;20081;-83
2022/04/17 01:16:05;;;;;;;14.73;10.73;;;;;;;15.04;71.14;101159.88;5089682;28;20038;-83
2022/04/17 01:18:54;;;;;;;14.68;10.93;;;;;;;15.04;71.49;101169.50;5090790;28;20028;-83
2022/04/17 01:21:20;;;;;;;16.67;11.13;;;;;;;14.77;71.58;101124.53;5090643;28;20062;-82
2022/04/17 01:29:15;;;;;;;16.17;10.77;;;;;;;14.98;71.32;101158.72;5092996;28;20035;-83
2022/04/17 01:31:41;;;;;;;15.48;11.20;;;;;;;14.99;71.55;101142.13;5094892;28;20024;-83
2022/04/17 01:34:07;;;;;;;15.15;10.73;;;;;;;14.82;71.53;101165.97;5093890;28;20025;-83
2022/04/17 01:36:33;;;;;;;;;;;;;;;15.09;71.18;101178.50;5094529;28;20035;-83
2022/04/17 01:38:59;;;;;;;15.35;11.38;;;;;;;15.02;71.42;101172.06;5094452;28;19912;-82
2022/04/17 01:41:24;;;;;;;18.10;12.02;;;;;;;14.96;71.27;101174.44;5094382;28;20032;-83
2022/04/17 01:43:50;;;;;;;18.00;12.38;;;;;;;14.80;72.18;101165.00;5094669;28;20035;-83
2022/04/17 01:46:15;;;;;;;16.27;11.20;;;;;;;14.85;71.36;101154.69;5093954;28;20024;-82
2022/04/17 01:48:41;;;;;;;17.20;12.00;;;;;;;15.00;71.53;101184.25;5094447;28;20036;-82
2022/04/17 01:51:07;;;;;;;18.08;12.05;;;;;;;14.98;71.46;101190.28;5093187;28;20016;-83
2022/04/17 01:53:33;;;;;;;15.95;12.20;;;;;;;15.05;71.20;101180.09;5094227;28;20051;-83
2022/04/17 01:56:02;;;;;;;17.85;12.35;;;;;;;15.07;71.25;101217.00;5092968;28;20047;-82
2022/04/17 01:58:27;;;;;;;14.40;11.32;;;;;;;14.90;71.37;101189.06;5093862;28;20032;-82
2022/04/17 02:00:53;;;;;;;19.25;12.05;;;;;;;15.02;71.42;101227.28;5093810;28;20049;-82
2022/04/17 02:03:19;;;;;;;17.85;12.43;;;;;;;15.02;71.11;101198.38;5094018;28;20024;-83
2022/04/17 02:05:45;;;;;;;15.93;11.80;;;;;;;14.97;71.33;101209.53;5093673;28;20028;-82
2022/04/17 02:08:12;;;;;;;15.50;10.82;;;;;;;14.98;71.60;101219.22;5092484;28;20032;-82
2022/04/17 02:10:38;;;;;;;16.48;11.57;;;;;;;14.95;71.84;101221.72;5093721;28;20103;-84
2022/04/17 02:13:04;;;;;;;16.65;12.23;;;;;;;15.01;71.73;101238.66;5092358;28;20119;-83
2022/04/17 02:15:30;;;;;;;15.82;12.02;;;;;;;15.03;71.83;101233.47;5092512;28;20035;-83
2022/04/17 02:17:55;;;;;;;16.38;11.68;;;;;;;14.91;71.90;101207.53;5093904;28;20130;-83
2022/04/17 02:20:21;;;;;;;15.98;11.77;;;;;;;14.86;71.42;101209.97;5092303;28;20144;-83
2022/04/17 02:22:47;;;;;;;16.25;11.27;;;;;;;14.95;71.97;101220.00;5093089;28;20186;-83
2022/04/17 02:25:12;;;;;;;16.65;12.07;;;;;;;14.93;72.35;101221.66;5092497;28;20028;-83
2022/04/17 02:27:38;;;;;;;15.68;11.55;;;;;;;14.83;72.04;101185.25;5092464;28;20032;-83
2022/04/17 02:30:05;;;;;;;16.02;11.60;;;;;;;15.04;71.45;101227.38;5093435;28;20084;-83
2022/04/17 02:32:31;;;;;;;15.85;10.98;;;;;;;14.86;71.73;101207.34;5092138;28;20055;-83
2022/04/17 02:34:56;;;;;;;15.93;11.77;;;;;;;14.99;71.72;101227.19;5093256;28;20417;-82
2022/04/17 02:37:22;;;;;;;18.38;12.00;;;;;;;14.97;71.65;101223.59;5093380;28;20028;-83
2022/04/17 02:39:48;;;;;;;16.65;11.10;;;;;;;14.98;71.85;101211.31;5093344;28;20020;-82
2022/04/17 02:42:13;;;;;;;16.52;10.88;;;;;;;14.82;72.32;101188.75;5092053;28;20032;-82
2022/04/17 02:44:39;;;;;;;16.55;11.52;;;;;;;14.95;71.87;101201.56;5093170;28;20027;-82
2022/04/17 02:49:48;;;;;;;14.82;11.30;;;;;;;14.96;71.82;101216.50;5093212;28;20030;-82
2022/04/17 02:52:14;;;;;;;18.23;11.10;;;;;;;14.76;71.88;101183.22;5092700;28;20028;-83
2022/04/17 02:54:41;;;;;;;14.40;10.48;;;;;;;15.00;71.78;101221.06;5092828;28;20032;-83
2022/04/17 02:57:07;;;;;;;16.83;11.18;;;;;;;14.90;71.72;101202.19;5093150;28;20024;-83
2022/04/17 02:59:32;;;;;;;15.57;10.45;;;;;;;14.78;71.84;101200.84;5092851;28;20028;-83
2022/04/17 03:07:26;;;;;;;16.33;11.25;;;;;;;14.98;71.73;101233.25;5092749;28;20034;-82
2022/04/17 03:09:52;;;;;;;16.80;11.30;;;;;;;14.98;72.10;101249.03;5092698;28;20115;-82
2022/04/17 03:12:17;;;;;;;15.20;10.93;;;;;;;15.00;71.94;101242.09;5092693;28;20663;-82
2022/04/17 03:14:46;;;;;;;14.77;11.45;;;;;;;14.97;72.34;101255.16;5092721;28;20028;-82
2022/04/17 03:17:12;;;;;;;14.18;10.70;;;;;;;14.98;71.64;101251.66;5091247;28;20043;-82
2022/04/17 03:19:37;;;;;;;14.68;10.77;;;;;;;14.98;71.75;101256.94;5092573;28;20020;-82
2022/04/17 03:22:04;;;;;;;12.48;9.75;;;;;;;14.86;72.04;101235.38;5092060;28;20047;-83
2022/04/17 03:24:31;;;;;;;15.32;10.32;;;;;;;14.90;71.96;101246.91;5092333;28;20089;-82
2022/04/17 03:26:57;;;;;;;13.27;9.68;;;;;;;14.94;71.63;101254.09;5091338;28;20134;-82
2022/04/17 03:29:23;;;;;;;15.57;10.55;;;;;;;14.90;71.91;101250.47;5092148;28;20054;-82
2022/04/17 03:31:49;;;;;;;12.23;9.90;;;;;;;14.92;71.58;101253.13;5091163;28;20036;-82
2022/04/17 03:34:15;;;;;;;13.82;10.45;;;;;;;15.00;71.87;101262.25;5091456;28;20020;-81
2022/04/17 03:36:40;;;;;;;12.75;9.57;;;;;;;14.94;72.05;101247.09;5091129;28;20493;-83
2022/04/17 03:39:07;;;;;;;16.33;10.57;;;;;;;14.99;71.75;101269.25;5091604;28;20035;-83
2022/04/17 03:41:34;;;;;;;14.15;10.52;;;;;;;14.92;71.55;101266.28;5090785;28;20623;-83
2022/04/17 03:44:02;;;;;;;14.10;10.00;;;;;;;14.95;71.91;101264.69;5090987;28;20036;-83
2022/04/17 03:46:28;;;;;;;15.68;10.52;;;;;;;14.88;72.17;101259.09;5092054;28;20027;-83
2022/04/17 03:48:54;;;;;;;15.02;10.43;;;;;;;14.92;71.84;101277.72;5090857;28;20500;-84
2022/04/17 03:51:19;;;;;;;15.55;10.77;;;;;;;14.80;71.38;101237.72;5090098;28;20119;-83
2022/04/17 03:53:45;;;;;;;16.55;10.65;;;;;;;14.95;71.50;101271.69;5091623;28;20039;-83
2022/04/17 03:56:11;;;;;;;14.65;10.25;;;;;;;14.70;71.73;101232.88;5091772;28;20028;-83
2022/04/17 03:58:36;;;;;;;12.90;9.90;;;;;;;14.91;71.93;101269.75;5092062;28;20405;-81
2022/04/17 04:01:02;;;;;;;15.07;10.80;;;;;;;14.92;71.64;101282.97;5091766;28;20055;-82
2022/04/17 04:03:28;;;;;;;13.02;9.63;;;;;;;14.89;71.60;101266.16;5091740;28;20413;-82
2022/04/17 04:05:53;;;;;;;15.23;10.90;;;;;;;14.91;71.81;101268.03;5091722;28;20028;-82
2022/04/17 04:08:19;;;;;;;12.93;10.18;;;;;;;14.89;71.95;101288.09;5091904;28;20496;-82
2022/04/17 04:10:45;;;;;;;15.85;10.30;;;;;;;14.91;71.68;101275.91;5091777;28;20039;-82
2022/04/17 04:13:10;;;;;;;13.45;10.02;;;;;;;14.87;71.72;101281.84;5091735;28;20530;-82
2022/04/17 04:15:36;;;;;;;17.85;10.82;;;;;;;14.83;72.26;101285.19;5091125;28;20113;-82
2022/04/17 04:18:01;;;;;;;15.13;10.77;;;;;;;14.83;71.72;101269.41;5091592;28;20052;-82
2022/04/17 04:20:27;;;;;;;15.43;10.48;;;;;;;14.93;71.74;101282.13;5091402;28;20068;-82
2022/04/17 04:22:55;;;;;;;13.70;10.20;;;;;;;14.68;71.88;101230.19;5091344;28;20047;-82
2022/04/17 04:25:21;;;;;;;14.23;9.70;;;;;;;14.88;71.65;101282.75;5091511;28;20028;-82
2022/04/17 04:30:30;;;;;;;14.90;9.27;;;;;;;14.81;71.95;101271.94;5084730;28;20413;-83
2022/04/17 04:32:57;;;;;;;13.10;9.10;;;;;;;14.71;71.62;101267.16;5091138;28;20016;-82
2022/04/17 04:35:26;;;;;;;14.02;9.05;;;;;;;14.68;71.54;101237.19;5090432;28;20032;-82
2022/04/17 04:37:52;;;;;;;14.38;9.55;;;;;;;14.70;71.58;101246.91;5089310;28;20405;-83
2022/04/17 04:40:18;;;;;;;14.68;8.40;;;;;;;14.59;72.73;101251.69;5101499;28;20024;-84
2022/04/17 04:42:43;;;;;;;;;;;;;;;14.72;71.71;101289.06;5110762;28;20077;-84
2022/04/17 04:47:53;;;;;;;14.57;8.35;;;;;;;14.64;71.40;101276.44;5090730;28;20027;-83
2022/04/17 04:50:19;;;;;;;12.73;8.20;;;;;;;14.43;71.83;101241.28;5090602;28;20024;-83
2022/04/17 04:52:45;;;;;;;13.40;8.40;;;;;;;14.58;71.50;101263.06;5106094;28;20061;-84
2022/04/17 04:55:11;;;;;;;12.65;8.30;;;;;;;14.47;72.04;101248.47;5109980;28;20539;-83
2022/04/17 04:57:37;;;;;;;13.25;8.50;;;;;;;14.64;71.38;101273.81;5091247;28;20037;-83
2022/04/17 05:00:07;;;;;;;14.50;8.35;;;;;;;14.66;72.60;101284.41;5090107;28;20024;-83
2022/04/17 05:02:34;;;;;;;15.02;8.65;;;;;;;14.64;71.58;101281.72;5090034;28;20032;-83
2022/04/17 05:05:00;;;;;;;13.57;8.13;;;;;;;14.54;71.47;101229.53;5093482;28;20416;-83
2022/04/17 05:07:31;;;;;;;16.08;8.18;;;;;;;14.61;71.14;101255.31;5097866;28;20032;-85
2022/04/17 05:09:57;;;;;;;15.82;8.15;;;;;;;14.39;71.46;101232.38;5116540;28;20412;-82
2022/04/17 05:12:22;;;;;;;14.05;8.90;;;;;;;14.57;71.18;101248.09;5115818;28;20031;-83
2022/04/17 05:14:48;;;;;;;13.77;8.40;;;;;;;14.54;71.91;101295.25;5114307;28;20027;-82
2022/04/17 05:17:14;;;;;;;14.70;7.97;;;;;;;14.64;70.99;101265.03;5114278;28;20023;-82
2022/04/17 05:19:40;;;;;;;13.65;8.10;;;;;;;14.57;71.06;101290.16;5115425;28;20401;-83
2022/04/17 05:22:10;;;;;;;18.95;8.88;;;;;;;14.70;71.18;101298.59;5086861;28;20049;-83
2022/04/17 05:24:38;;;;;;;16.63;9.10;;;;;;;14.52;71.39;101291.66;5073793;28;20516;-83
2022/04/17 05:27:04;;;;;;;15.00;8.38;;;;;;;14.57;71.12;101329.56;5073871;28;20019;-82
2022/04/17 05:29:30;;;;;;;13.02;8.02;;;;;;;14.66;70.71;101332.63;5073652;28;20016;-83
2022/04/17 05:31:55;;;;;;;13.88;8.43;;;;;;;14.47;71.08;101306.28;5074075;28;20107;-82
2022/04/17 05:34:21;;;;;;;15.23;7.85;;;;;;;14.32;70.83;101277.56;5075149;28;20032;-84
2022/04/17 05:36:47;;;;;;;13.63;8.00;;;;;;;14.63;70.75;101350.00;5075685;28;20039;-82
2022/04/17 05:39:12;;;;;;;13.05;8.10;;;;;;;14.31;70.88;101303.75;5073518;28;20289;-83
2022/04/17 05:41:39;;;;;;;10.70;7.22;;;;;;;14.60;70.74;101358.63;5083342;28;20485;-82
2022/04/17 05:44:07;;;;;;;13.48;7.15;;;;;;;14.66;70.92;101377.31;5077741;28;20055;-82
2022/04/17 05:46:35;;;;;;;12.63;7.25;;;;;;;14.69;70.81;101387.09;5069240;28;20020;-82
2022/04/17 05:49:05;;;;;;;13.02;7.68;;;;;;;14.57;70.94;101360.22;5072359;28;20032;-82
2022/04/17 05:51:33;;;;;;;11.52;7.18;;;;;;;14.56;70.76;101361.03;5073923;28;20555;-81
2022/04/17 05:53:59;;;;;;;12.15;7.10;;;;;;;14.61;70.98;101368.31;5089605;28;20126;-82
2022/04/17 05:56:26;;;;;;;11.48;6.93;;;;;;;14.62;70.93;101369.22;5089642;28;20032;-83
2022/04/17 05:58:51;;;;;;;;;;;;;;;14.67;71.18;101388.75;5073000;28;20406;-83
2022/04/17 06:01:17;;;;;;;12.25;6.85;;;;;;;14.64;71.28;101407.88;5088992;28;19919;-83
2022/04/17 06:03:43;;;;;;;9.95;6.60;;;;;;;14.60;71.27;101399.78;5090610;28;20036;-83
2022/04/17 06:06:09;;;;;;;11.68;6.82;;;;;;;14.51;70.84;101394.06;5083776;28;20092;-83
2022/04/17 06:08:34;;;;;;;10.85;6.68;;;;;;;14.46;71.00;101397.38;5093956;28;20056;-83
2022/04/17 06:11:01;;;;;;;10.82;6.72;;;;;;;14.68;71.00;101415.94;5091777;28;20390;-83
2022/04/17 06:13:26;;;;;;;10.07;6.13;;;;;;;14.36;71.04;101376.72;5073634;28;20051;-83
2022/04/17 06:15:52;;;;;;;11.38;6.10;;;;;;;14.58;70.90;101396.19;5073333;28;20522;-82
2022/04/17 06:18:17;;;;;;;10.23;6.28;;;;;;;14.30;70.62;101357.16;5073593;28;20032;-83
2022/04/17 06:20:43;;;;;;;9.60;6.15;;;;;;;14.23;70.62;101351.59;5073429;28;20062;-83
2022/04/17 06:23:10;;;;;;;11.43;6.50;;;;;;;14.63;71.13;101419.25;5073516;28;20102;-83
2022/04/17 06:25:35;;;;;;;12.93;6.30;;;;;;;14.45;70.72;101386.78;5083712;28;20028;-83
2022/04/17 06:28:01;;;;;;;10.27;6.03;;;;;;;14.52;70.95;101419.50;5088053;28;20413;-83
2022/04/17 06:30:27;;;;;;;11.35;6.25;;;;;;;14.21;70.59;101378.63;5085693;28;20032;-83
2022/04/17 06:32:53;;;;;;;10.32;6.25;;;;;;;14.23;70.75;101395.34;5086797;28;20044;-83
2022/04/17 06:35:19;;;;;;;13.55;6.65;;;;;;;14.32;70.77;101421.19;5092608;28;20032;-84
2022/04/17 06:37:51;;;;;;;11.48;6.13;;;;;;;14.61;70.95;101485.72;5091633;28;20028;-83
2022/04/17 06:40:25;;;;;;;10.73;6.47;;;;;;;14.45;70.99;101461.25;5087985;28;20048;-84
2022/04/17 06:42:52;;;;;;;10.68;5.82;;;;;;;14.61;70.60;101485.72;5082351;28;20059;-83
2022/04/17 06:45:19;;;;;;;14.05;6.50;;;;;;;14.46;71.03;101489.34;5086529;28;20558;-88
2022/04/17 06:47:47;;;;;;;11.98;6.05;;;;;;;14.34;70.87;101470.34;5092130;28;20123;-90
2022/04/17 06:50:15;;;;;;;8.93;4.90;;;;;;;14.32;70.71;101455.34;5075048;28;20492;-88
2022/04/17 06:52:49;;;;;;;10.65;5.82;;;;;;;14.49;70.74;101506.09;5074649;28;20028;-92
2022/04/17 06:55:21;;;;;;;8.07;5.22;;;;;;;14.58;70.65;101510.13;5073053;28;20036;-90
2022/04/17 06:57:57;;;;;;;7.60;4.72;;;;;;;14.60;70.64;101497.03;5069445;28;20024;-90
2022/04/17 07:00:26;;;;;;;8.20;4.80;;;;;;;14.58;70.78;101498.69;5090795;28;20047;-89
2022/04/17 07:02:54;;;;;;;8.27;4.75;;;;;;;14.40;70.85;101469.75;5096313;28;20497;-90
2022/04/17 07:05:23;;;;;;;8.98;4.40;;;;;;;14.43;70.54;101440.97;5064829;28;20055;-89
2022/04/17 07:08:03;;;;;;;7.28;4.60;;;;;;;14.50;70.56;101448.38;5061292;28;20024;-89
2022/04/17 07:10:29;;;;;;;8.10;4.82;;;;;;;14.57;70.55;101429.47;5074784;28;20112;-91
2022/04/17 07:12:55;;;;;;;6.15;4.30;;;;;;;14.43;70.70;101438.34;5071826;28;20082;-90
2022/04/17 07:15:25;;;;;;;8.77;4.55;;;;;;;14.52;70.74;101446.72;5089102;28;20059;-89
2022/04/17 07:17:55;;;;;;;6.47;3.70;;;;;;;14.33;70.70;101407.19;5112905;28;20038;-89
2022/04/17 07:20:21;;;;;;;5.75;3.95;;;;;;;14.52;70.17;101427.38;5094418;28;20052;-89
2022/04/17 07:22:47;;;;;;;7.57;4.00;;;;;;;14.34;70.60;101380.13;5091621;28;20409;-90
2022/04/17 07:25:25;;;;;;;6.80;4.00;;;;;;;14.29;70.25;101372.00;5098699;28;20043;-90
2022/04/17 07:27:57;;;;;;;5.50;3.63;;;;;;;14.35;70.41;101401.22;5092938;28;20032;-90
2022/04/17 07:30:28;;;;;;;6.53;4.47;;;;;;;14.42;71.00;101412.91;5093217;28;20023;-88
2022/04/17 07:32:57;;;;;;;5.18;3.50;;;;;;;14.36;70.24;101383.72;5075147;28;20094;-89
2022/04/17 07:35:30;;;;;;;5.32;3.25;;;;;;;14.13;70.76;101375.59;5091084;28;20038;-89
2022/04/17 07:38:00;;;;;;;3.97;3.03;;;;;;;14.24;70.52;101368.25;5074011;28;20059;-89
2022/04/17 07:40:29;;;;;;;4.97;3.22;;;;;;;14.10;70.35;101356.19;5080669;28;20397;-87
2022/04/17 07:43:00;;;;;;;4.10;3.03;;;;;;;14.21;70.23;101361.13;5087483;28;20052;-91
2022/04/17 07:45:30;;;;;;;5.20;3.03;;;;;;;14.33;70.35;101400.25;5072913;28;20024;-90
2022/04/17 07:48:06;;;;;;;5.85;3.75;;;;;;;14.25;70.31;101373.59;5072347;28;20028;-93
2022/04/17 07:50:31;;;;;;;5.05;3.50;;;;;;;14.23;70.36;101383.13;5056908;28;20086;-88
2022/04/17 07:52:58;;;;;;;6.07;3.55;;;;;;;14.23;70.60;101376.97;5070642;28;20040;-89
2022/04/17 07:55:24;;;;;;;4.97;3.20;;;;;;;14.16;70.86;101407.28;5060705;28;20617;-88
2022/04/17 08:00:35;;;;;;;8.55;4.00;;;;;;;14.28;70.28;101382.44;5099338;28;20040;-89
2022/04/17 08:03:24;;;;;;;6.28;3.60;;;;;;;14.27;70.26;101363.16;5081309;28;20486;-88
2022/04/17 08:05:50;;;;;;;4.32;3.40;;;;;;;14.37;70.26;101388.13;5077116;28;20052;-87
2022/04/17 08:08:17;;;;;;;4.47;3.55;;;;;;;14.16;70.29;101361.72;5075990;28;20517;-90
2022/04/17 08:10:44;;;;;;;5.53;3.60;;;;;;;14.40;70.16;101423.34;5090452;28;20032;-90
2022/04/17 08:13:10;;;;;;;6.18;3.90;;;;;;;14.34;70.13;101406.38;5060206;28;20040;-88
2022/04/17 08:15:35;;;;;;;6.78;3.63;;;;;;;14.19;70.06;101378.53;5071044;28;20020;-89
2022/04/17 08:18:01;;;;;;;5.40;3.90;;;;;;;14.32;70.19;101408.03;5076494;28;20071;-88
2022/04/17 08:20:27;;;;;;;5.00;3.50;;;;;;;14.14;70.40;101359.03;5068896;28;20040;-88
2022/04/17 08:22:52;;;;;;;3.80;3.20;;;;;;;14.22;70.50;101351.50;5071681;28;20082;-88
2022/04/17 08:25:18;;;;;;;7.15;3.60;;;;;;;13.88;70.47;101267.56;5072019;28;20077;-88
2022/04/17 08:27:49;;;;;;;6.82;4.00;;;;;;;14.23;69.75;101311.28;5070923;28;20021;-90
2022/04/17 08:30:22;;;;;;;5.68;3.40;;;;;;;14.12;70.00;101300.28;5079164;28;20642;-89
2022/04/17 08:32:47;;;;;;;5.95;3.80;;;;;;;14.17;70.33;101322.41;5069895;28;20021;-89
2022/04/17 08:35:13;;;;;;;6.10;3.70;;;;;;;13.89;70.52;101277.25;5095971;28;20067;-88
2022/04/17 08:37:39;;;;;;;5.93;3.70;;;;;;;13.93;70.20;101245.09;5087296;28;20031;-89
2022/04/17 08:40:06;;;;;;;5.80;4.00;;;;;;;13.98;70.47;101275.97;5088521;28;20528;-88
2022/04/17 08:42:36;;;;;;;9.55;3.97;;;;;;;14.01;69.85;101259.44;5077080;28;20097;-89
2022/04/17 08:45:05;;;;;;;6.72;3.50;;;;;;;14.02;70.12;101282.28;5082243;28;20031;-88
2022/04/17 08:47:32;;;;;;;7.63;4.03;;;;;;;13.99;69.74;101256.78;5074008;28;20186;-88
2022/04/17 08:49:58;;;;;;;5.63;4.15;;;;;;;13.88;70.42;101276.34;5084294;28;20502;-90
2022/04/17 08:52:25;;;;;;;6.60;4.20;;;;;;;14.22;70.25;101348.88;5066793;28;20065;-88
2022/04/17 08:54:54;;;;;;;7.25;4.03;;;;;;;14.21;69.97;101326.06;5094424;28;20104;-86
2022/04/17 08:57:21;;;;;;;8.43;4.10;;;;;;;14.18;70.21;101326.84;5072320;28;20036;-87
2022/04/17 08:59:47;;;;;;;6.40;4.25;;;;;;;14.10;69.82;101295.78;5094974;28;20417;-88
2022/04/17 09:02:16;;;;;;;5.28;3.92;;;;;;;14.15;70.03;101333.66;5095873;28;20036;-89
2022/04/17 09:04:42;;;;;;;9.10;4.35;;;;;;;14.15;69.97;101333.66;5073990;28;20040;-88
2022/04/17 09:07:10;;;;;;;8.27;4.32;;;;;;;13.92;70.07;101274.78;5087670;28;20028;-89
2022/04/17 09:10:02;;;;;;;5.32;3.92;;;;;;;14.17;69.92;101343.41;5088671;28;20397;-89
2022/04/17 09:12:27;;;;;;;6.15;3.92;;;;;;;14.13;69.96;101323.06;5105357;28;20100;-86
2022/04/17 09:14:55;;;;;;;8.32;4.10;;;;;;;14.15;69.76;101337.19;5114102;28;20032;-86
2022/04/17 09:17:28;;;;;;;7.32;4.10;;;;;;;13.94;69.75;101262.63;5105433;28;20036;-86
2022/04/17 09:19:54;;;;;;;6.43;4.18;;;;;;;14.08;69.66;101310.56;5093408;28;20025;-85
2022/04/17 09:22:20;;;;;;;6.35;3.83;;;;;;;13.96;69.69;101285.50;5093370;28;20047;-86
2022/04/17 09:24:45;;;;;;;5.75;3.70;;;;;;;14.13;69.63;101316.94;5091979;28;20033;-87
2022/04/17 09:27:11;;;;;;;4.45;3.63;;;;;;;14.11;69.63;101324.72;5106142;28;20404;-86
2022/04/17 09:29:38;;;;;;;6.15;3.58;;;;;;;14.08;70.36;101313.19;5072512;28;20072;-85
2022/04/17 09:32:10;;;;;;;5.43;3.53;;;;;;;14.13;70.04;101353.69;5072844;28;20047;-86
2022/04/17 09:34:50;;;;;;;7.18;4.15;;;;;;;13.83;69.70;101264.72;5072740;28;20056;-86
2022/04/17 09:37:18;;;;;;;5.95;4.00;;;;;;;14.02;69.43;101298.91;5089683;28;20493;-86
2022/04/17 09:39:46;;;;;;;7.22;3.85;;;;;;;14.12;69.47;101317.72;5075725;28;20580;-86
2022/04/17 09:42:12;;;;;;;7.05;3.75;;;;;;;14.16;69.35;101314.44;5072979;28;20111;-86
2022/04/17 09:44:49;;;;;;;;;;;;;;;14.18;69.61;101337.34;5078690;28;20016;-86
2022/04/17 09:47:17;;;;;;;5.60;3.50;;;;;;;14.01;69.84;101306.72;5092462;28;19962;-87
2022/04/17 09:50:08;;;;;;;6.63;3.80;;;;;;;14.13;69.29;101343.19;5091347;28;20028;-87
2022/04/17 09:52:40;;;;;;;5.50;3.50;;;;;;;14.10;69.51;101341.31;5074222;28;20039;-86
2022/04/17 09:55:07;;;;;;;5.13;3.67;;;;;;;13.98;69.75;101331.09;5093643;28;20570;-86
2022/04/17 09:57:39;;;;;;;;;;;;;;;14.24;69.67;101347.22;5094502;28;20474;-86
2022/04/17 10:00:10;;;;;;;8.50;5.20;;;;;;;14.11;69.43;101357.97;5092556;28;19919;-85
2022/04/17 10:02:38;;;;;;;8.93;5.75;;;;;;;14.19;69.16;101360.16;5087589;28;20043;-87
2022/04/17 10:05:08;;;;;;;5.18;3.97;;;;;;;14.07;69.84;101353.38;5086626;28;20107;-86
2022/04/17 10:07:39;;;;;;;4.78;3.50;;;;;;;14.09;69.34;101364.88;5080114;28;20024;-86
2022/04/17 10:10:06;;;;;;;6.80;3.95;;;;;;;14.01;69.37;101338.22;5091570;28;20054;-86
2022/04/17 10:12:35;;;;;;;4.85;3.50;;;;;;;14.01;69.62;101343.47;5091190;28;20401;-86
2022/04/17 10:15:04;;;;;;;5.20;3.60;;;;;;;14.03;69.55;101329.63;5094483;28;20093;-86
2022/04/17 10:17:31;;;;;;;4.40;3.55;;;;;;;14.16;69.40;101357.38;5101520;28;20016;-87
2022/04/17 10:20:01;;;;;;;3.97;3.55;;;;;;;14.15;69.56;101360.81;5093855;28;20077;-86
2022/04/17 10:22:29;;;;;;;3.88;3.47;;;;;;;13.98;69.47;101354.75;5074976;28;20052;-86
2022/04/17 10:24:54;;;;;;;5.95;3.67;;;;;;;13.90;69.21;101321.06;5093257;28;20512;-86
2022/04/17 10:27:29;;;;;;;4.35;3.50;;;;;;;13.80;68.94;101296.97;5078406;28;20031;-87
2022/04/17 10:30:15;;;;;;;6.97;4.22;;;;;;;14.14;68.83;101351.16;5078197;28;20020;-86
2022/04/17 10:33:08;;;;;;;4.82;3.70;;;;;;;13.73;68.95;101286.09;5092432;28;20630;-87
2022/04/17 10:36:04;;;;;;;4.25;3.50;;;;;;;13.96;69.21;101353.75;5093392;28;20035;-87
2022/04/17 10:38:45;;;;;;;4.07;3.50;;;;;;;13.95;69.10;101372.97;5093054;28;20043;-87
2022/04/17 10:41:12;;;;;;;4.60;3.75;;;;;;;14.03;69.04;101370.72;5087842;28;20032;-87
2022/04/17 10:43:47;;;;;;;4.18;3.20;;;;;;;14.01;69.18;101362.78;5081526;28;20185;-86
2022/04/17 10:46:23;;;;;;;4.80;3.88;;;;;;;14.02;69.19;101380.31;5082157;28;20020;-87
2022/04/17 10:48:57;;;;;;;7.20;3.63;;;;;;;13.80;69.11;101349.47;5092294;28;20028;-86
2022/04/17 10:51:27;;;;;;;4.47;3.47;;;;;;;14.03;69.03;101373.34;5096754;28;20095;-88
2022/04/17 10:54:04;;;;;;;4.47;3.78;;;;;;;14.02;69.61;101385.56;5081150;28;20051;-85
2022/04/17 10:56:35;;;;;;;4.23;3.27;;;;;;;13.84;69.49;101347.91;5091845;28;20016;-87
2022/04/17 10:59:18;;;;;;;4.50;3.67;;;;;;;13.96;69.45;101372.13;5087217;28;20035;-86
2022/04/17 11:01:44;;;;;;;4.90;4.00;;;;;;;14.05;68.97;101380.50;5076170;28;20413;-87
2022/04/17 11:04:21;;;;;;;4.65;3.88;;;;;;;13.99;69.43;101395.94;5073889;28;20024;-87
2022/04/17 11:06:54;;;;;;;5.03;4.07;;;;;;;13.70;68.99;101334.09;5082451;28;20043;-87
2022/04/17 11:09:23;;;;;;;5.38;3.80;;;;;;;13.87;69.08;101389.19;5086004;28;20027;-87
2022/04/17 11:11:49;;;;;;;6.00;4.00;;;;;;;13.88;69.09;101393.59;5097468;28;20115;-87
2022/04/17 11:14:21;;;;;;;4.32;3.63;;;;;;;14.00;69.02;101392.47;5084082;28;20027;-86
2022/04/17 11:16:54;;;;;;;6.88;4.00;;;;;;;14.05;68.69;101369.06;5090703;28;20035;-85
2022/04/17 11:19:28;;;;;;;4.22;3.78;;;;;;;13.95;69.10;101361.56;5070773;28;20108;-86
2022/04/17 11:22:07;;;;;;;3.95;3.38;;;;;;;13.99;68.62;101361.81;5070828;28;20048;-86
2022/04/17 11:24:54;;;;;;;4.15;3.70;;;;;;;14.04;68.82;101376.06;5078418;28;20024;-86
2022/04/17 11:27:32;;;;;;;5.38;4.10;;;;;;;14.01;68.55;101356.59;5099201;28;20028;-85
2022/04/17 11:30:02;;;;;;;7.13;4.63;;;;;;;14.00;68.63;101344.31;5092779;28;20031;-87
2022/04/17 11:32:31;;;;;;;5.05;3.90;;;;;;;13.83;69.36;101327.72;5074517;28;20051;-86
2022/04/17 11:35:00;;;;;;;6.13;4.53;;;;;;;13.81;69.19;101327.66;5072655;28;20478;-87
2022/04/17 11:37:27;;;;;;;5.53;4.28;;;;;;;13.89;68.84;101311.41;5070915;28;20428;-86
2022/04/17 11:39:59;;;;;;;5.13;3.92;;;;;;;13.94;68.62;101346.63;5070252;28;20373;-86
2022/04/17 11:42:28;;;;;;;4.57;3.80;;;;;;;13.88;69.13;101341.97;5087073;28;20054;-86
2022/04/17 11:44:59;;;;;;;6.13;4.20;;;;;;;13.87;69.12;101344.53;5092114;28;20031;-87